Time;durP1;ratioP1;P1;durP2;ratioP2;P2;SDS_P1;SDS_P2;PMS_P1;PMS_P2;Temp;Humidity;BMP_temperature;BMP_pressure;BME280_temperature;BME280_humidity;BME280_pressure;Samples;Min_cycle;Max_cycle;Signal;HPM_P1;HPM_P2
2021/11/11 00:00:47;;;;;;;;;17.00;17.00;;;;;22.02;40.04;102298.06;4972846;28;45377;-63
2021/11/11 00:03:13;;;;;;;;;16.75;16.75;;;;;22.06;39.94;102310.06;4968372;28;46213;-62
2021/11/11 00:05:39;;;;;;;;;15.00;14.75;;;;;22.07;40.03;102316.19;4971188;28;50122;-63
2021/11/11 00:08:05;;;;;;;;;18.50;17.50;;;;;22.02;39.85;102299.88;4973400;28;45508;-63
2021/11/11 00:10:31;;;;;;;;;26.75;23.50;;;;;22.03;39.76;102296.25;4966444;28;45572;-64
2021/11/11 00:12:58;;;;;;;;;19.50;18.75;;;;;22.01;39.71;102304.38;4968458;28;46381;-63
2021/11/11 00:15:25;;;;;;;;;18.00;18.00;;;;;22.04;39.89;102298.75;4969952;28;45588;-63
2021/11/11 00:17:50;;;;;;;;;20.00;18.75;;;;;22.03;40.23;102297.09;4969634;28;45493;-63
2021/11/11 00:20:19;;;;;;;;;13.75;13.50;;;;;22.05;40.08;102297.78;4974489;28;45506;-63
2021/11/11 00:22:45;;;;;;;;;20.25;17.50;;;;;22.05;39.82;102288.97;4970225;28;46528;-63
2021/11/11 00:25:13;;;;;;;;;21.25;18.25;;;;;22.06;40.25;102299.47;4965190;28;45419;-63
2021/11/11 00:27:39;;;;;;;;;17.75;17.50;;;;;22.08;40.24;102288.69;4962754;28;45672;-63
2021/11/11 00:30:07;;;;;;;;;22.75;17.75;;;;;22.02;40.10;102292.75;4968252;28;45461;-63
2021/11/11 00:32:32;;;;;;;;;18.50;17.75;;;;;22.03;39.82;102286.50;4968126;28;46574;-63
2021/11/11 00:34:58;;;;;;;;;22.25;17.00;;;;;22.07;40.26;102295.81;4973474;28;45522;-63
2021/11/11 00:37:23;;;;;;;;;20.00;19.00;;;;;22.07;40.25;102294.97;4973726;28;45435;-64
2021/11/11 00:39:50;;;;;;;;;16.50;16.00;;;;;22.07;39.99;102292.31;4969667;28;45449;-63
2021/11/11 00:42:18;;;;;;;;;21.25;18.50;;;;;22.09;40.28;102292.19;4972008;28;46398;-64
2021/11/11 00:44:45;;;;;;;;;16.50;15.75;;;;;22.09;40.02;102293.03;4966742;28;45561;-63
2021/11/11 00:47:11;;;;;;;;;16.25;16.00;;;;;21.99;40.40;102273.69;4971163;28;45474;-62
2021/11/11 00:49:37;;;;;;;;;16.00;14.25;;;;;22.06;40.59;102278.25;4969775;28;45537;-63
2021/11/11 00:52:04;;;;;;;;;21.00;20.00;;;;;22.09;40.59;102285.09;4970230;28;45623;-63
2021/11/11 00:54:29;;;;;;;;;17.00;16.00;;;;;22.07;40.41;102279.91;4970875;28;45356;-63
2021/11/11 00:56:54;;;;;;;;;17.75;16.75;;;;;22.06;40.52;102283.56;4960475;28;45353;-63
2021/11/11 00:59:20;;;;;;;;;15.00;12.75;;;;;22.06;40.00;102272.97;4968550;28;45362;-63
2021/11/11 01:01:45;;;;;;;;;15.00;15.00;;;;;22.09;40.48;102277.13;4970898;28;46415;-63
2021/11/11 01:04:10;;;;;;;;;17.25;15.50;;;;;22.08;40.24;102280.75;4962521;28;45390;-63
2021/11/11 01:06:36;;;;;;;;;17.00;16.25;;;;;22.08;40.03;102280.75;4973407;28;45560;-63
2021/11/11 01:09:02;;;;;;;;;19.75;17.25;;;;;22.06;40.44;102272.13;4972545;28;45285;-63
2021/11/11 01:11:28;;;;;;;;;17.00;16.00;;;;;22.10;40.55;102280.59;4968853;28;46465;-63
2021/11/11 01:13:53;;;;;;;;;16.75;15.00;;;;;22.06;40.41;102280.91;4968808;28;45545;-63
2021/11/11 01:16:19;;;;;;;;;17.00;17.00;;;;;22.05;40.51;102278.38;4969381;28;45537;-63
2021/11/11 01:18:45;;;;;;;;;16.50;15.00;;;;;22.07;40.12;102277.25;4969449;28;45395;-63
2021/11/11 01:21:10;;;;;;;;;19.50;15.50;;;;;22.10;40.54;102272.63;4971492;28;46539;-63
2021/11/11 01:23:36;;;;;;;;;18.50;15.50;;;;;22.08;40.51;102270.16;4966554;28;45382;-63
2021/11/11 01:26:03;;;;;;;;;17.00;15.50;;;;;22.11;40.15;102269.03;4972819;28;45387;-63
2021/11/11 01:28:29;;;;;;;;;18.00;15.00;;;;;22.04;40.60;102261.66;4971138;28;45488;-63
2021/11/11 01:30:55;;;;;;;;;13.75;12.75;;;;;22.07;40.15;102257.88;4967180;28;46466;-63
2021/11/11 01:33:20;;;;;;;;;16.00;15.00;;;;;22.10;40.70;102260.22;4967141;28;45466;-63
2021/11/11 01:35:45;;;;;;;;;15.00;14.50;;;;;22.07;40.34;102256.06;4968990;28;45521;-62
2021/11/11 01:38:11;;;;;;;;;18.25;16.75;;;;;22.10;39.93;102265.53;4971203;28;45394;-62
2021/11/11 01:40:37;;;;;;;;;20.75;16.50;;;;;22.10;39.80;102267.34;4967823;28;47024;-62
2021/11/11 01:43:05;;;;;;;;;21.25;19.50;;;;;22.00;39.08;102254.13;4968015;28;45426;-62
2021/11/11 01:45:34;;;;;;;;;25.00;22.00;;;;;21.95;39.14;102252.75;4973514;28;45385;-62
2021/11/11 01:48:00;;;;;;;;;25.50;21.75;;;;;21.99;39.84;102257.78;4966718;28;45459;-62
2021/11/11 01:50:27;;;;;;;;;17.75;15.50;;;;;21.96;39.49;102250.97;4967926;28;47398;-62
2021/11/11 01:52:52;;;;;;;;;16.50;16.00;;;;;22.02;40.04;102257.47;4967070;28;45466;-62
2021/11/11 01:55:18;;;;;;;;;15.25;14.50;;;;;21.98;39.96;102248.16;4973589;28;45434;-62
2021/11/11 01:57:43;;;;;;;;;17.25;16.00;;;;;22.03;39.97;102261.81;4967210;28;45415;-62
2021/11/11 02:00:16;;;;;;;;;16.00;16.00;;;;;22.03;40.17;102253.84;4969086;28;46412;-62
2021/11/11 02:02:42;;;;;;;;;19.50;17.50;;;;;22.04;40.11;102258.19;4968763;28;45538;-62
2021/11/11 02:05:08;;;;;;;;;17.00;16.00;;;;;21.98;39.72;102249.00;4966622;28;45494;-62
2021/11/11 02:07:34;;;;;;;;;17.00;16.00;;;;;22.02;39.68;102250.34;4957006;28;45404;-62
2021/11/11 02:09:59;;;;;;;;;18.75;16.25;;;;;22.03;39.90;102254.69;4958319;28;45347;-62
2021/11/11 02:12:29;;;;;;;;;14.75;14.75;;;;;22.05;39.47;102265.97;4966606;28;45462;-62
2021/11/11 02:14:54;;;;;;;;;19.25;17.00;;;;;22.05;39.91;102265.97;4970324;28;45348;-62
2021/11/11 02:17:29;;;;;;;;;18.50;17.75;;;;;22.06;39.49;102254.41;4967702;28;45472;-62
2021/11/11 02:20:02;;;;;;;;;24.75;19.25;;;;;22.09;39.56;102255.09;4964434;28;46209;-62
2021/11/11 02:22:28;;;;;;;;;20.00;17.25;;;;;22.05;39.38;102242.13;4965755;28;45635;-62
2021/11/11 02:24:53;;;;;;;;;19.50;16.25;;;;;22.07;39.42;102244.63;4965902;28;45646;-62
2021/11/11 02:27:19;;;;;;;;;16.00;16.00;;;;;22.05;39.84;102239.47;4967481;28;45283;-62
2021/11/11 02:29:44;;;;;;;;;13.75;13.75;;;;;22.05;39.27;102242.13;4969165;28;45533;-61
2021/11/11 02:32:10;;;;;;;;;19.00;14.75;;;;;22.02;39.29;102245.06;4957638;28;45336;-61
2021/11/11 02:34:35;;;;;;;;;17.75;16.00;;;;;22.00;39.75;102235.59;4964740;28;45359;-62
2021/11/11 02:37:04;;;;;;;;;16.75;15.75;;;;;22.05;39.64;102244.78;4968485;28;46509;-62
2021/11/11 02:39:36;;;;;;;;;16.00;16.00;;;;;22.07;39.72;102241.97;4971688;28;45420;-62
2021/11/11 02:42:03;;;;;;;;;20.75;17.25;;;;;21.98;39.25;102226.94;4955173;28;45306;-62
2021/11/11 02:44:29;;;;;;;;;17.25;14.50;;;;;22.05;39.31;102239.47;4974009;28;45215;-62
2021/11/11 02:46:56;;;;;;;;;18.00;15.25;;;;;22.07;39.59;102244.63;4970342;28;45611;-62
2021/11/11 02:49:22;;;;;;;;;20.50;18.75;;;;;22.03;39.35;102246.75;4972638;28;46264;-62
2021/11/11 02:51:48;;;;;;;;;19.75;18.00;;;;;22.04;39.05;102243.09;4972778;28;45397;-62
2021/11/11 02:54:13;;;;;;;;;16.25;15.75;;;;;22.06;39.61;102237.66;4985323;28;45462;-62
2021/11/11 02:56:39;;;;;;;;;18.25;17.00;;;;;22.03;39.13;102235.28;4973348;28;45370;-62
2021/11/11 02:59:05;;;;;;;;;15.50;15.50;;;;;22.07;39.25;102234.00;4973964;28;45398;-62
2021/11/11 03:01:31;;;;;;;;;17.50;17.00;;;;;22.03;38.93;102232.66;4972597;28;45471;-62
2021/11/11 03:03:57;;;;;;;;;16.50;15.75;;;;;22.03;39.53;102228.19;4972660;28;45559;-62
2021/11/11 03:06:22;;;;;;;;;17.00;16.50;;;;;22.06;39.23;102233.19;4972883;28;45356;-62
2021/11/11 03:08:47;;;;;;;;;22.75;18.00;;;;;22.06;38.97;102240.31;4972452;28;45357;-62
2021/11/11 03:11:13;;;;;;;;;18.25;16.75;;;;;22.05;39.08;102239.47;4974333;28;45561;-62
2021/11/11 03:13:38;;;;;;;;;21.25;18.25;;;;;22.00;39.34;102235.59;4971118;28;45690;-62
2021/11/11 03:16:04;;;;;;;;;17.50;14.75;;;;;22.04;39.17;102237.78;4972709;28;45303;-62
2021/11/11 03:18:30;;;;;;;;;14.50;14.50;;;;;22.06;38.85;102233.19;4972527;28;45538;-62
2021/11/11 03:20:55;;;;;;;;;19.50;16.75;;;;;22.07;38.71;102239.31;4972386;28;45450;-62
2021/11/11 03:23:22;;;;;;;;;18.50;17.50;;;;;22.04;38.75;102235.13;4971743;28;45520;-62
2021/11/11 03:25:48;;;;;;;;;19.00;18.00;;;;;22.05;38.89;102243.94;4972557;28;45354;-62
2021/11/11 03:28:13;;;;;;;;;17.00;15.25;;;;;22.02;39.29;102234.47;4971395;28;46268;-62
2021/11/11 03:30:39;;;;;;;;;15.25;13.75;;;;;22.05;38.82;102241.28;4971722;28;45503;-62
2021/11/11 03:33:06;;;;;;;;;17.00;16.00;;;;;22.05;38.84;102249.22;4971520;28;45479;-62
2021/11/11 03:35:33;;;;;;;;;15.25;14.50;;;;;22.05;39.25;102250.06;4973629;28;45526;-62
2021/11/11 03:38:02;;;;;;;;;16.50;16.50;;;;;22.03;38.75;102246.75;4972262;28;46533;-62
2021/11/11 03:40:33;;;;;;;;;15.50;14.50;;;;;22.05;38.75;102257.19;4971256;28;45344;-62
2021/11/11 03:42:59;;;;;;;;;18.25;15.25;;;;;22.03;39.06;102254.69;4972455;28;45278;-62
2021/11/11 03:45:26;;;;;;;;;16.50;15.25;;;;;22.00;39.15;102249.69;4972420;28;45446;-62
2021/11/11 03:47:53;;;;;;;;;14.25;14.25;;;;;21.98;38.77;102256.94;4972184;28;45524;-62
2021/11/11 03:50:20;;;;;;;;;14.50;14.50;;;;;22.03;38.68;102264.44;4974164;28;45371;-62
2021/11/11 03:52:48;;;;;;;;;21.75;18.50;;;;;22.03;38.97;102261.81;4970749;28;45399;-62
2021/11/11 03:55:15;;;;;;;;;21.50;17.25;;;;;22.01;38.48;102250.50;4971798;28;45561;-62
2021/11/11 03:57:41;;;;;;;;;18.00;14.50;;;;;22.00;38.96;102249.69;4971745;28;46647;-62
2021/11/11 04:00:13;;;;;;;;;20.25;17.25;;;;;22.01;39.24;102256.66;4972113;28;45291;-62
2021/11/11 04:02:39;;;;;;;;;17.00;17.00;;;;;22.00;38.61;102254.13;4973149;28;45512;-62
2021/11/11 04:05:05;;;;;;;;;18.50;15.25;;;;;22.00;38.54;102254.97;4973461;28;45308;-62
2021/11/11 04:07:31;;;;;;;;;20.25;16.25;;;;;21.95;38.46;102249.28;4970199;28;45522;-62
2021/11/11 04:09:56;;;;;;;;;18.00;14.25;;;;;21.99;39.11;102249.84;4971597;28;45528;-62
2021/11/11 04:12:21;;;;;;;;;19.25;16.25;;;;;21.99;38.97;102249.84;4972161;28;45477;-62
2021/11/11 04:14:47;;;;;;;;;16.50;16.00;;;;;21.96;38.51;102256.25;4972310;28;45308;-62
2021/11/11 04:17:13;;;;;;;;;16.25;16.00;;;;;21.99;39.09;102263.91;4973887;28;46445;-62
2021/11/11 04:19:38;;;;;;;;;16.25;16.00;;;;;21.99;39.03;102261.25;4971563;28;45575;-62
2021/11/11 04:22:04;;;;;;;;;16.75;16.00;;;;;21.99;39.04;102255.13;4971934;28;45454;-62
2021/11/11 04:24:30;;;;;;;;;16.25;15.00;;;;;21.98;38.96;102256.94;4971622;28;45391;-62
2021/11/11 04:27:01;;;;;;;;;17.50;16.25;;;;;21.98;38.55;102256.09;4971818;28;46689;-62
2021/11/11 04:29:29;;;;;;;;;15.25;15.25;;;;;21.92;38.54;102245.09;4969642;28;45383;-62
2021/11/11 04:32:00;;;;;;;;;17.50;16.25;;;;;21.99;38.32;102255.94;4970566;28;45546;-62
2021/11/11 04:34:28;;;;;;;;;17.50;17.50;;;;;21.94;39.03;102255.53;4970077;28;45439;-62
2021/11/11 05:01:08;;;;;;;;;20.50;18.50;;;;;22.00;38.22;102275.34;4994308;28;45499;-62
2021/11/11 05:03:36;;;;;;;;;17.50;17.50;;;;;21.95;38.52;102271.31;4994428;28;45342;-62
2021/11/11 05:06:01;;;;;;;;;19.75;16.25;;;;;21.95;38.76;102271.31;4978690;28;45453;-62
2021/11/11 05:08:28;;;;;;;;;17.00;14.50;;;;;21.99;38.62;102271.03;4993023;28;46204;-62
2021/11/11 05:10:53;;;;;;;;;17.25;15.75;;;;;21.96;38.48;102258.91;4994441;28;45374;-62
2021/11/11 05:13:19;;;;;;;;;19.00;16.75;;;;;21.80;38.20;102238.28;4994119;28;45564;-62
2021/11/11 05:15:44;;;;;;;;;19.50;17.00;;;;;21.99;38.66;102273.69;4994297;28;45422;-62
2021/11/11 05:18:10;;;;;;;;;16.00;14.50;;;;;21.99;38.60;102271.84;4994242;28;45849;-62
2021/11/11 05:20:36;;;;;;;;;17.00;14.75;;;;;21.98;38.70;102275.50;4992770;28;45501;-60
2021/11/11 05:23:02;;;;;;;;;17.75;16.00;;;;;21.98;38.84;102282.59;4993195;28;45481;-62
2021/11/11 05:25:28;;;;;;;;;17.25;15.00;;;;;21.98;38.32;102279.94;4971091;28;45596;-62
2021/11/11 05:27:53;;;;;;;;;19.00;16.00;;;;;21.93;38.67;102278.59;4970772;28;46341;-62
2021/11/11 05:30:19;;;;;;;;;18.75;17.00;;;;;21.95;38.40;102283.72;4971167;28;45421;-62
2021/11/11 05:32:49;;;;;;;;;14.50;13.75;;;;;21.95;38.36;102286.38;4971196;28;45388;-62
2021/11/11 05:35:15;;;;;;;;;17.50;16.00;;;;;21.95;38.87;102289.88;4971190;28;45204;-62
2021/11/11 05:37:42;;;;;;;;;15.25;15.25;;;;;21.92;38.39;102287.50;4970498;28;46103;-61
2021/11/11 05:40:09;;;;;;;;;14.25;14.25;;;;;21.94;38.64;102280.22;4970815;28;45759;-62
2021/11/11 05:42:35;;;;;;;;;15.75;15.75;;;;;21.90;38.50;102278.88;4970787;28;45392;-62
2021/11/11 05:45:02;;;;;;;;;15.00;15.00;;;;;21.94;38.74;102290.84;4971005;28;45304;-62
2021/11/11 05:47:27;;;;;;;;;18.25;14.25;;;;;21.92;38.54;102290.16;4968741;28;46533;-63
2021/11/11 05:49:53;;;;;;;;;19.75;17.50;;;;;21.88;38.11;102285.28;4968805;28;45575;-62
2021/11/11 05:52:18;;;;;;;;;16.25;13.00;;;;;21.92;38.35;102290.16;4970920;28;45477;-62
2021/11/11 05:54:44;;;;;;;;;16.25;16.25;;;;;21.95;38.78;102291.69;4970674;28;45526;-62
2021/11/11 05:57:09;;;;;;;;;14.75;13.00;;;;;21.94;38.48;102305.91;4970386;28;46002;-62
2021/11/11 05:59:41;;;;;;;;;16.75;16.75;;;;;21.92;38.64;102299.91;4971962;28;45335;-62
2021/11/11 06:02:08;;;;;;;;;16.00;15.50;;;;;21.94;38.45;102316.50;4972231;28;45456;-62
2021/11/11 06:04:34;;;;;;;;;15.75;15.75;;;;;21.94;38.27;102314.69;4969161;28;45527;-62
2021/11/11 06:07:00;;;;;;;;;19.75;16.00;;;;;21.92;38.58;102315.81;4973125;28;45300;-62
2021/11/11 06:09:25;;;;;;;;;14.00;12.25;;;;;21.94;38.60;102319.97;4972360;28;45424;-63
2021/11/11 06:11:50;;;;;;;;;15.25;13.25;;;;;21.91;38.06;102320.25;4973702;28;45750;-63
2021/11/11 06:14:16;;;;;;;;;15.25;13.75;;;;;21.95;38.45;102332.28;4975668;28;45427;-62
2021/11/11 06:16:42;;;;;;;;;14.00;13.00;;;;;21.91;37.94;102328.22;4973213;28;46021;-63
2021/11/11 06:19:09;;;;;;;;;17.25;15.25;;;;;21.93;38.43;102320.13;4972824;28;45503;-62
2021/11/11 06:21:36;;;;;;;;;13.25;13.25;;;;;21.96;38.25;102328.63;4973393;28;45498;-63
2021/11/11 06:24:02;;;;;;;;;17.50;17.25;;;;;21.96;38.18;102319.84;4973467;28;45525;-63
2021/11/11 06:26:27;;;;;;;;;15.50;14.50;;;;;21.95;38.18;102321.66;4975077;28;46433;-63
2021/11/11 06:28:53;;;;;;;;;14.75;14.25;;;;;21.94;38.11;102314.69;4971752;28;45469;-62
2021/11/11 06:31:18;;;;;;;;;18.00;14.00;;;;;21.94;38.32;102330.59;4973258;28;45414;-62
2021/11/11 06:33:44;;;;;;;;;15.00;14.50;;;;;21.69;38.01;102289.63;4972943;28;45517;-62
2021/11/11 06:36:11;;;;;;;;;19.50;16.25;;;;;21.95;38.27;102334.91;4973268;28;46180;-63
2021/11/11 06:38:36;;;;;;;;;15.00;14.25;;;;;21.95;38.03;102331.44;4974454;28;45440;-62
2021/11/11 06:41:02;;;;;;;;;16.00;14.25;;;;;21.93;38.17;102322.78;4973959;28;45240;-63
2021/11/11 06:43:28;;;;;;;;;17.75;14.25;;;;;21.93;38.33;102336.03;4971798;28;45467;-63
2021/11/11 06:45:53;;;;;;;;;17.50;16.00;;;;;21.92;38.13;102337.84;4972722;28;46251;-62
2021/11/11 06:48:19;;;;;;;;;17.25;14.75;;;;;21.95;38.56;102336.72;4972641;28;45435;-62
2021/11/11 06:50:45;;;;;;;;;13.50;11.25;;;;;21.93;38.14;102336.88;4973346;28;45888;-63
2021/11/11 06:53:13;;;;;;;;;14.00;13.00;;;;;21.94;38.23;102337.69;4973186;28;45410;-62
2021/11/11 06:55:40;;;;;;;;;16.25;14.75;;;;;21.94;38.11;102340.34;4972624;28;47088;-63
2021/11/11 06:58:06;;;;;;;;;18.00;16.00;;;;;21.92;38.33;102340.50;4972735;28;45389;-62
2021/11/11 07:00:32;;;;;;;;;18.25;15.25;;;;;21.94;38.40;102345.63;4973096;28;45431;-62
2021/11/11 07:02:57;;;;;;;;;15.75;12.50;;;;;21.76;37.90;102326.97;4972605;28;45636;-63
2021/11/11 07:05:23;;;;;;;;;17.25;14.50;;;;;21.89;38.12;102348.72;4974841;28;47160;-63
2021/11/11 07:07:48;;;;;;;;;16.50;15.75;;;;;21.91;38.54;102362.66;4971170;28;45394;-63
2021/11/11 07:10:14;;;;;;;;;17.00;14.50;;;;;21.92;38.08;102364.34;4972840;28;45342;-62
2021/11/11 07:12:40;;;;;;;;;20.00;16.25;;;;;21.93;38.08;102367.84;4972728;28;45347;-62
2021/11/11 07:15:08;;;;;;;;;19.00;16.00;;;;;21.92;37.97;102367.00;4972299;28;46531;-62
2021/11/11 07:17:37;;;;;;;;;17.50;15.50;;;;;21.92;38.03;102369.66;4973432;28;45358;-63
2021/11/11 07:20:05;;;;;;;;;16.25;14.50;;;;;21.92;38.05;102374.09;4973089;28;45367;-63
2021/11/11 07:22:31;;;;;;;;;17.00;16.00;;;;;21.92;38.31;102374.09;4971220;28;45605;-63
2021/11/11 07:24:57;;;;;;;;;15.25;14.50;;;;;21.92;38.06;102379.41;4972436;28;45336;-62
2021/11/11 07:27:22;;;;;;;;;15.25;14.75;;;;;21.89;38.14;102375.22;4972514;28;45458;-62
2021/11/11 07:29:48;;;;;;;;;7.00;3.75;;;;;21.92;38.01;102382.06;4972705;28;45467;-62
2021/11/11 07:32:13;;;;;;;;;20.00;15.00;;;;;21.91;38.06;102393.66;4974423;28;46321;-62
2021/11/11 07:34:38;;;;;;;;;14.75;13.50;;;;;21.90;38.12;102384.84;4972350;28;45442;-62
2021/11/11 07:37:05;;;;;;;;;19.50;12.75;;;;;21.90;38.45;102398.09;4972277;28;45429;-62
2021/11/11 07:39:32;;;;;;;;;12.50;12.50;;;;;21.91;37.94;102407.72;4972535;28;45421;-63
2021/11/11 07:41:58;;;;;;;;;17.00;15.75;;;;;21.84;37.66;102398.63;4972543;28;45237;-63
2021/11/11 07:44:23;;;;;;;;;15.75;14.25;;;;;21.86;37.80;102394.03;4974114;28;46329;-62
2021/11/11 07:46:51;;;;;;;;;17.50;14.25;;;;;21.87;38.13;102398.38;4970313;28;45430;-63
2021/11/11 07:49:16;;;;;;;;;15.50;15.00;;;;;21.92;38.03;102404.09;4972482;28;45439;-62
2021/11/11 07:51:42;;;;;;;;;14.75;14.00;;;;;21.92;38.26;102403.25;4972227;28;45457;-63
2021/11/11 07:54:09;;;;;;;;;15.75;13.00;;;;;21.92;37.66;102406.75;4972323;28;46361;-63
2021/11/11 07:56:36;;;;;;;;;14.75;14.00;;;;;21.92;37.73;102409.41;4973489;28;45406;-63
2021/11/11 07:59:03;;;;;;;;;15.25;14.25;;;;;21.92;37.75;102404.09;4973119;28;45482;-63
2021/11/11 08:01:28;;;;;;;;;14.75;13.25;;;;;21.93;38.02;102410.25;4970265;28;45446;-62
2021/11/11 08:03:53;;;;;;;;;14.25;14.00;;;;;21.91;37.70;102414.84;4971810;28;47384;-62
2021/11/11 08:06:19;;;;;;;;;14.00;13.00;;;;;21.92;38.05;102419.16;4972268;28;45328;-63
2021/11/11 08:08:45;;;;;;;;;14.75;14.75;;;;;21.93;37.74;102419.03;4972479;28;45360;-62
2021/11/11 08:11:10;;;;;;;;;15.00;14.00;;;;;21.76;38.20;102391.38;4974141;28;45571;-62
2021/11/11 08:13:35;;;;;;;;;14.25;13.00;;;;;21.90;37.71;102414.00;4971846;28;45365;-63
2021/11/11 08:16:01;;;;;;;;;17.00;15.25;;;;;21.91;37.68;102423.59;4971444;28;45447;-63
2021/11/11 08:18:26;;;;;;;;;14.50;13.50;;;;;21.91;37.81;102420.97;4972048;28;45361;-62
2021/11/11 08:20:54;;;;;;;;;14.00;14.00;;;;;21.87;37.62;102422.22;4971848;28;45315;-62
2021/11/11 08:23:20;;;;;;;;;14.25;13.25;;;;;21.92;37.58;102421.81;4973895;28;46181;-63
2021/11/11 08:25:48;;;;;;;;;15.25;13.25;;;;;21.91;37.84;102420.16;4970056;28;45338;-63
2021/11/11 08:28:21;;;;;;;;;16.50;12.50;;;;;21.87;37.92;102400.16;4970549;28;45502;-62
2021/11/11 08:30:47;;;;;;;;;14.50;14.50;;;;;21.91;37.98;102410.34;4971448;28;45498;-63
2021/11/11 08:33:14;;;;;;;;;15.50;13.75;;;;;21.90;37.96;102406.06;4971609;28;47085;-63
2021/11/11 08:35:41;;;;;;;;;14.75;11.75;;;;;21.91;38.04;102406.91;4972686;28;45417;-63
2021/11/11 08:38:06;;;;;;;;;13.50;13.50;;;;;21.90;37.85;102406.06;4973051;28;45351;-63
2021/11/11 08:40:31;;;;;;;;;12.00;11.25;;;;;21.90;37.96;102406.06;4970317;28;45750;-62
2021/11/11 08:42:59;;;;;;;;;13.00;12.00;;;;;21.88;37.73;102404.53;4971680;28;46380;-62
2021/11/11 08:45:26;;;;;;;;;15.00;14.50;;;;;21.89;37.87;102414.97;4971357;28;45340;-62
2021/11/11 08:47:52;;;;;;;;;15.00;14.00;;;;;21.84;37.58;102399.47;4971540;28;45236;-62
2021/11/11 08:50:18;;;;;;;;;15.00;13.00;;;;;21.88;38.15;102408.00;4973683;28;45202;-62
2021/11/11 08:52:45;;;;;;;;;15.50;15.50;;;;;21.90;37.66;102407.88;4971443;28;45550;-62
2021/11/11 08:55:17;;;;;;;;;19.75;15.75;;;;;21.89;37.76;102406.19;4971439;28;45501;-62
2021/11/11 08:57:43;;;;;;;;;13.75;13.75;;;;;21.86;37.87;102399.31;4971298;28;45468;-62
2021/11/11 09:00:16;;;;;;;;;17.50;15.75;;;;;21.90;37.83;102407.88;4971160;28;45957;-63
2021/11/11 09:02:43;;;;;;;;;15.25;13.00;;;;;21.88;37.61;102408.00;4971934;28;45444;-63
2021/11/11 09:05:08;;;;;;;;;16.50;12.50;;;;;21.89;37.71;102407.03;4971080;28;45384;-62
2021/11/11 09:07:38;;;;;;;;;14.25;14.25;;;;;21.85;38.24;102395.84;4971189;28;45493;-62
2021/11/11 09:10:05;;;;;;;;;15.50;14.50;;;;;21.87;38.17;102400.16;4971279;28;45497;-62
2021/11/11 09:12:30;;;;;;;;;14.00;13.25;;;;;21.89;38.03;102406.19;4971049;28;46334;-62
2021/11/11 09:14:56;;;;;;;;;17.25;13.75;;;;;21.87;37.72;102400.16;4970814;28;45497;-63
2021/11/11 09:17:21;;;;;;;;;14.00;11.75;;;;;21.86;37.81;102401.97;4973410;28;45335;-63
2021/11/11 09:19:46;;;;;;;;;14.00;12.75;;;;;21.87;37.72;102398.38;4969572;28;45461;-63
2021/11/11 09:22:12;;;;;;;;;16.75;14.75;;;;;21.87;37.63;102403.69;4971174;28;46710;-63
2021/11/11 09:24:39;;;;;;;;;14.50;13.00;;;;;21.86;37.89;102396.66;4971097;28;45372;-62
2021/11/11 09:27:04;;;;;;;;;12.00;12.00;;;;;21.90;37.91;102413.16;4971189;28;45354;-63
2021/11/11 09:29:30;;;;;;;;;13.75;13.75;;;;;21.88;37.61;102401.88;4973080;28;45464;-63
2021/11/11 09:31:55;;;;;;;;;15.00;13.75;;;;;21.88;37.39;102402.72;4970823;28;45362;-62
2021/11/11 09:34:20;;;;;;;;;14.00;14.00;;;;;21.81;38.15;102397.09;4970957;28;45334;-62
2021/11/11 09:36:46;;;;;;;;;13.25;13.25;;;;;21.86;37.68;102407.25;4971051;28;45379;-63
2021/11/11 09:39:11;;;;;;;;;17.00;13.25;;;;;21.89;37.39;102414.97;4972182;28;45524;-62
2021/11/11 09:41:39;;;;;;;;;16.25;11.75;;;;;21.87;37.83;102405.47;4974482;28;45985;-61
2021/11/11 09:44:05;;;;;;;;;13.25;13.00;;;;;21.90;37.41;102415.81;4975019;28;45317;-62
2021/11/11 09:46:30;;;;;;;;;14.50;14.50;;;;;21.91;37.53;102414.84;4973679;28;45230;-62
2021/11/11 09:48:56;;;;;;;;;14.25;13.75;;;;;21.88;37.80;102413.31;4973759;28;45580;-62
2021/11/11 09:51:23;;;;;;;;;17.75;13.75;;;;;21.89;37.84;102409.66;4973764;28;45291;-63
2021/11/11 09:54:07;;;;;;;;;12.50;12.25;;;;;21.90;37.54;102410.50;4973817;28;45375;-62
2021/11/11 09:59:20;;;;;;;;;14.00;13.00;;;;;21.89;37.51;102414.13;4974964;28;45417;-63
2021/11/11 10:01:46;;;;;;;;;18.75;15.00;;;;;21.88;37.77;102425.72;4973491;28;46039;-62
2021/11/11 10:04:12;;;;;;;;;16.25;14.75;;;;;21.85;37.72;102418.84;4973606;28;45641;-62
2021/11/11 10:06:39;;;;;;;;;12.50;12.00;;;;;21.88;37.54;102415.13;4973376;28;45517;-63
2021/11/11 10:09:14;;;;;;;;;14.00;14.00;;;;;21.89;37.71;102420.28;4973825;28;45402;-62
2021/11/11 10:11:52;;;;;;;;;16.75;14.00;;;;;21.89;37.84;102414.13;4974012;28;47045;-63
2021/11/11 10:14:25;;;;;;;;;15.25;14.00;;;;;21.86;37.92;102407.25;4974044;28;45312;-63
2021/11/11 10:16:58;;;;;;;;;15.00;14.75;;;;;21.87;37.40;102405.47;4973307;28;45272;-63
2021/11/11 10:19:26;;;;;;;;;14.75;13.25;;;;;21.84;38.08;102401.28;4972997;28;45535;-62
2021/11/11 10:22:05;;;;;;;;;14.75;12.00;;;;;21.88;37.84;102405.38;4971656;28;46051;-63
2021/11/11 10:24:41;;;;;;;;;13.50;13.50;;;;;21.87;37.54;102408.09;4973249;28;45414;-62
2021/11/11 10:27:24;;;;;;;;;11.75;11.75;;;;;21.88;37.77;102405.38;4958530;28;45364;-63
2021/11/11 10:29:49;;;;;;;;;13.00;12.25;;;;;21.88;37.37;102404.53;4973249;28;45284;-63
2021/11/11 10:32:17;;;;;;;;;12.00;12.00;;;;;21.89;37.93;102411.47;4975114;28;46278;-62
2021/11/11 10:34:56;;;;;;;;;6.25;6.25;;;;;21.88;37.60;102413.31;4973282;28;45352;-62
2021/11/11 10:37:25;;;;;;;;;16.25;15.00;;;;;21.86;37.83;102404.63;4971749;28;45474;-62
2021/11/11 10:40:01;;;;;;;;;12.75;12.75;;;;;21.81;37.94;102393.59;4972602;28;45560;-62
2021/11/11 10:42:30;;;;;;;;;11.50;10.50;;;;;21.84;37.83;102395.97;4973065;28;45569;-63
2021/11/11 10:44:56;;;;;;;;;12.00;12.00;;;;;21.87;37.52;102406.34;4973026;28;45434;-63
2021/11/11 10:47:29;;;;;;;;;11.75;10.75;;;;;21.84;37.41;102404.78;4975133;28;45377;-63
2021/11/11 10:49:55;;;;;;;;;11.50;11.00;;;;;21.86;37.70;102399.31;4972622;28;45327;-62
2021/11/11 10:52:23;;;;;;;;;13.50;13.50;;;;;21.87;37.43;102398.38;4972451;28;45406;-63
2021/11/11 10:54:58;;;;;;;;;18.50;14.00;;;;;21.86;38.04;102401.97;4972685;28;45517;-62
2021/11/11 10:57:42;;;;;;;;;14.50;13.00;;;;;21.87;37.94;102389.56;4973106;28;45548;-62
2021/11/11 11:00:13;;;;;;;;;14.50;12.50;;;;;21.87;37.75;102386.91;4957481;28;45493;-62
2021/11/11 11:02:53;;;;;;;;;13.00;12.25;;;;;21.87;37.80;102377.19;4973838;28;46700;-63
2021/11/11 11:05:22;;;;;;;;;11.50;10.00;;;;;21.87;37.79;102379.84;4973628;28;45386;-62
2021/11/11 11:07:53;;;;;;;;;12.75;12.25;;;;;21.84;37.70;102370.31;4972599;28;45689;-63
2021/11/11 11:10:19;;;;;;;;;15.00;13.75;;;;;21.87;37.86;102373.66;4972352;28;45346;-62
2021/11/11 11:12:45;;;;;;;;;15.00;11.50;;;;;21.84;37.79;102372.13;4972495;28;47435;-63
2021/11/11 11:15:41;;;;;;;;;13.00;13.00;;;;;21.85;37.93;102366.72;4971444;28;45445;-62
2021/11/11 11:18:07;;;;;;;;;14.50;13.75;;;;;21.88;37.76;102375.38;4957046;28;48705;-63
2021/11/11 11:20:34;;;;;;;;;13.00;11.75;;;;;21.88;37.49;102370.91;4973107;28;45439;-63
2021/11/11 11:23:23;;;;;;;;;14.50;12.50;;;;;21.88;37.99;102362.97;4971766;28;45368;-63
2021/11/11 11:25:58;;;;;;;;;13.25;13.00;;;;;21.89;37.62;102369.09;4972290;28;45514;-63
2021/11/11 11:28:42;;;;;;;;;14.00;13.25;;;;;21.88;37.75;102362.13;4972582;28;45473;-63
2021/11/11 11:31:09;;;;;;;;;13.50;13.50;;;;;21.88;37.48;102359.47;4972413;28;45493;-62
2021/11/11 11:33:45;;;;;;;;;13.50;13.25;;;;;21.88;37.85;102357.66;4972305;28;46329;-63
2021/11/11 11:36:15;;;;;;;;;14.25;14.25;;;;;21.87;37.46;102347.16;4972533;28;45405;-63